sensor_id;sensor_type;location;lat;lon;timestamp;P1;durP1;ratioP1;P2;durP2;ratioP2
2656;SDS011;1338;48.176;11.792;2023-12-14T00:01:35;2.40;;;2.20;;
2656;SDS011;1338;48.176;11.792;2023-12-14T00:04:04;2.43;;;2.27;;
2656;SDS011;1338;48.176;11.792;2023-12-14T00:06:32;2.50;;;2.30;;
2656;SDS011;1338;48.176;11.792;2023-12-14T00:09:01;2.40;;;2.30;;
2656;SDS011;1338;48.176;11.792;2023-12-14T00:11:35;2.47;;;2.27;;
2656;SDS011;1338;48.176;11.792;2023-12-14T00:14:06;2.50;;;2.30;;
2656;SDS011;1338;48.176;11.792;2023-12-14T00:16:36;2.40;;;2.20;;
2656;SDS011;1338;48.176;11.792;2023-12-14T00:19:05;2.50;;;2.30;;
2656;SDS011;1338;48.176;11.792;2023-12-14T00:21:34;2.40;;;2.20;;
2656;SDS011;1338;48.176;11.792;2023-12-14T00:24:02;2.70;;;2.50;;
2656;SDS011;1338;48.176;11.792;2023-12-14T00:26:31;2.10;;;2.00;;
2656;SDS011;1338;48.176;11.792;2023-12-14T00:29:01;2.50;;;2.30;;
2656;SDS011;1338;48.176;11.792;2023-12-14T00:31:30;2.20;;;2.10;;
2656;SDS011;1338;48.176;11.792;2023-12-14T00:33:59;2.27;;;2.10;;
2656;SDS011;1338;48.176;11.792;2023-12-14T00:36:29;2.30;;;2.10;;
2656;SDS011;1338;48.176;11.792;2023-12-14T00:39:00;2.40;;;2.20;;
2656;SDS011;1338;48.176;11.792;2023-12-14T00:41:29;2.70;;;2.50;;
2656;SDS011;1338;48.176;11.792;2023-12-14T00:44:01;2.57;;;2.37;;
2656;SDS011;1338;48.176;11.792;2023-12-14T00:46:30;2.60;;;2.40;;
2656;SDS011;1338;48.176;11.792;2023-12-14T00:48:59;2.50;;;2.30;;
2656;SDS011;1338;48.176;11.792;2023-12-14T00:51:29;2.90;;;2.33;;
2656;SDS011;1338;48.176;11.792;2023-12-14T00:53:57;3.27;;;2.97;;
2656;SDS011;1338;48.176;11.792;2023-12-14T00:56:26;3.27;;;2.43;;
2656;SDS011;1338;48.176;11.792;2023-12-14T00:58:55;3.00;;;2.70;;
2656;SDS011;1338;48.176;11.792;2023-12-14T01:01:27;4.93;;;2.80;;
2656;SDS011;1338;48.176;11.792;2023-12-14T01:03:56;2.50;;;2.30;;
2656;SDS011;1338;48.176;11.792;2023-12-14T01:06:28;2.87;;;2.63;;
2656;SDS011;1338;48.176;11.792;2023-12-14T01:09:00;2.60;;;2.40;;
2656;SDS011;1338;48.176;11.792;2023-12-14T01:11:30;2.83;;;2.60;;
2656;SDS011;1338;48.176;11.792;2023-12-14T01:13:58;2.37;;;2.17;;
2656;SDS011;1338;48.176;11.792;2023-12-14T01:16:30;2.93;;;2.70;;
2656;SDS011;1338;48.176;11.792;2023-12-14T01:18:59;2.90;;;2.70;;
2656;SDS011;1338;48.176;11.792;2023-12-14T01:21:28;3.00;;;2.80;;
2656;SDS011;1338;48.176;11.792;2023-12-14T01:23:57;3.70;;;3.00;;
2656;SDS011;1338;48.176;11.792;2023-12-14T01:26:28;3.07;;;2.87;;
2656;SDS011;1338;48.176;11.792;2023-12-14T01:28:57;3.37;;;3.07;;
2656;SDS011;1338;48.176;11.792;2023-12-14T01:31:26;3.97;;;2.87;;
2656;SDS011;1338;48.176;11.792;2023-12-14T01:33:57;3.57;;;3.27;;
2656;SDS011;1338;48.176;11.792;2023-12-14T01:36:26;3.43;;;3.13;;
2656;SDS011;1338;48.176;11.792;2023-12-14T01:38:54;3.07;;;2.87;;
2656;SDS011;1338;48.176;11.792;2023-12-14T01:41:24;3.13;;;2.93;;
2656;SDS011;1338;48.176;11.792;2023-12-14T01:43:54;3.60;;;3.30;;
2656;SDS011;1338;48.176;11.792;2023-12-14T01:46:24;4.63;;;4.23;;
2656;SDS011;1338;48.176;11.792;2023-12-14T01:48:53;3.50;;;3.20;;
2656;SDS011;1338;48.176;11.792;2023-12-14T01:51:24;4.23;;;3.40;;
2656;SDS011;1338;48.176;11.792;2023-12-14T01:53:53;3.00;;;2.80;;
2656;SDS011;1338;48.176;11.792;2023-12-14T01:56:22;3.43;;;3.13;;
2656;SDS011;1338;48.176;11.792;2023-12-14T01:58:50;3.00;;;2.80;;
2656;SDS011;1338;48.176;11.792;2023-12-14T02:01:20;3.20;;;2.73;;
2656;SDS011;1338;48.176;11.792;2023-12-14T02:03:56;3.10;;;2.70;;
2656;SDS011;1338;48.176;11.792;2023-12-14T02:06:27;2.80;;;2.50;;
2656;SDS011;1338;48.176;11.792;2023-12-14T02:08:56;3.23;;;2.93;;
2656;SDS011;1338;48.176;11.792;2023-12-14T02:11:25;3.77;;;2.90;;
2656;SDS011;1338;48.176;11.792;2023-12-14T02:13:54;2.80;;;2.60;;
2656;SDS011;1338;48.176;11.792;2023-12-14T02:16:22;2.63;;;2.43;;
2656;SDS011;1338;48.176;11.792;2023-12-14T02:18:51;2.83;;;2.63;;
2656;SDS011;1338;48.176;11.792;2023-12-14T02:21:21;2.70;;;2.47;;
2656;SDS011;1338;48.176;11.792;2023-12-14T02:23:51;2.10;;;2.00;;
2656;SDS011;1338;48.176;11.792;2023-12-14T02:26:21;2.23;;;2.03;;
2656;SDS011;1338;48.176;11.792;2023-12-14T02:28:50;2.40;;;1.77;;
2656;SDS011;1338;48.176;11.792;2023-12-14T02:31:19;2.40;;;2.20;;
2656;SDS011;1338;48.176;11.792;2023-12-14T02:33:52;2.10;;;1.90;;
2656;SDS011;1338;48.176;11.792;2023-12-14T02:36:21;1.80;;;1.70;;
2656;SDS011;1338;48.176;11.792;2023-12-14T02:38:51;1.80;;;1.70;;
2656;SDS011;1338;48.176;11.792;2023-12-14T02:41:21;1.70;;;1.60;;
2656;SDS011;1338;48.176;11.792;2023-12-14T02:43:51;2.40;;;2.20;;
2656;SDS011;1338;48.176;11.792;2023-12-14T02:46:21;1.77;;;1.67;;
2656;SDS011;1338;48.176;11.792;2023-12-14T02:48:50;2.10;;;1.90;;
2656;SDS011;1338;48.176;11.792;2023-12-14T02:51:19;2.33;;;1.80;;
2656;SDS011;1338;48.176;11.792;2023-12-14T02:53:48;2.03;;;1.90;;
2656;SDS011;1338;48.176;11.792;2023-12-14T02:56:18;3.03;;;1.77;;
2656;SDS011;1338;48.176;11.792;2023-12-14T02:58:47;2.23;;;2.03;;
2656;SDS011;1338;48.176;11.792;2023-12-14T03:01:18;2.27;;;2.07;;
2656;SDS011;1338;48.176;11.792;2023-12-14T03:03:48;2.27;;;2.13;;
2656;SDS011;1338;48.176;11.792;2023-12-14T03:06:17;2.00;;;1.90;;
2656;SDS011;1338;48.176;11.792;2023-12-14T03:08:48;2.30;;;2.13;;
2656;SDS011;1338;48.176;11.792;2023-12-14T03:11:25;3.30;;;3.00;;
2656;SDS011;1338;48.176;11.792;2023-12-14T03:13:54;3.13;;;2.90;;
2656;SDS011;1338;48.176;11.792;2023-12-14T03:16:24;3.60;;;3.30;;
2656;SDS011;1338;48.176;11.792;2023-12-14T03:18:52;3.80;;;3.50;;
2656;SDS011;1338;48.176;11.792;2023-12-14T03:21:23;4.00;;;3.70;;
2656;SDS011;1338;48.176;11.792;2023-12-14T03:23:51;3.67;;;3.37;;
2656;SDS011;1338;48.176;11.792;2023-12-14T03:26:20;4.37;;;3.97;;
2656;SDS011;1338;48.176;11.792;2023-12-14T03:28:51;4.70;;;4.30;;
2656;SDS011;1338;48.176;11.792;2023-12-14T03:31:19;4.10;;;3.73;;
2656;SDS011;1338;48.176;11.792;2023-12-14T03:33:48;3.97;;;3.67;;
2656;SDS011;1338;48.176;11.792;2023-12-14T03:36:17;4.13;;;3.73;;
2656;SDS011;1338;48.176;11.792;2023-12-14T03:38:48;4.37;;;3.97;;
2656;SDS011;1338;48.176;11.792;2023-12-14T03:41:17;4.73;;;4.33;;
2656;SDS011;1338;48.176;11.792;2023-12-14T03:43:47;5.03;;;4.33;;
2656;SDS011;1338;48.176;11.792;2023-12-14T03:46:18;5.00;;;4.47;;
2656;SDS011;1338;48.176;11.792;2023-12-14T03:48:47;5.90;;;5.33;;
2656;SDS011;1338;48.176;11.792;2023-12-14T03:51:17;7.60;;;6.90;;
2656;SDS011;1338;48.176;11.792;2023-12-14T03:53:46;6.57;;;5.50;;
2656;SDS011;1338;48.176;11.792;2023-12-14T03:56:17;6.73;;;6.03;;
2656;SDS011;1338;48.176;11.792;2023-12-14T03:58:46;6.20;;;5.57;;
2656;SDS011;1338;48.176;11.792;2023-12-14T04:01:16;6.93;;;6.23;;
2656;SDS011;1338;48.176;11.792;2023-12-14T04:03:47;7.37;;;6.67;;
2656;SDS011;1338;48.176;11.792;2023-12-14T04:06:16;7.20;;;6.17;;
2656;SDS011;1338;48.176;11.792;2023-12-14T04:08:45;7.23;;;6.53;;
2656;SDS011;1338;48.176;11.792;2023-12-14T04:11:14;7.43;;;6.20;;
2656;SDS011;1338;48.176;11.792;2023-12-14T04:13:42;8.97;;;7.17;;
2656;SDS011;1338;48.176;11.792;2023-12-14T04:16:11;9.17;;;7.73;;
2656;SDS011;1338;48.176;11.792;2023-12-14T04:18:39;8.70;;;7.80;;
2656;SDS011;1338;48.176;11.792;2023-12-14T04:21:10;8.70;;;7.80;;
2656;SDS011;1338;48.176;11.792;2023-12-14T04:23:39;9.63;;;7.60;;
2656;SDS011;1338;48.176;11.792;2023-12-14T04:26:08;8.23;;;6.80;;
2656;SDS011;1338;48.176;11.792;2023-12-14T04:28:40;9.20;;;8.07;;
2656;SDS011;1338;48.176;11.792;2023-12-14T04:31:10;7.50;;;6.50;;
2656;SDS011;1338;48.176;11.792;2023-12-14T04:33:40;8.17;;;7.07;;
2656;SDS011;1338;48.176;11.792;2023-12-14T04:36:12;6.90;;;6.20;;
2656;SDS011;1338;48.176;11.792;2023-12-14T04:38:41;8.83;;;7.93;;
2656;SDS011;1338;48.176;11.792;2023-12-14T04:41:09;8.10;;;6.93;;
2656;SDS011;1338;48.176;11.792;2023-12-14T04:43:38;8.10;;;7.07;;
2656;SDS011;1338;48.176;11.792;2023-12-14T04:46:10;8.30;;;7.50;;
2656;SDS011;1338;48.176;11.792;2023-12-14T04:48:39;7.37;;;5.90;;
2656;SDS011;1338;48.176;11.792;2023-12-14T04:51:12;6.73;;;6.00;;
2656;SDS011;1338;48.176;11.792;2023-12-14T04:53:41;6.80;;;6.17;;
2656;SDS011;1338;48.176;11.792;2023-12-14T04:56:10;6.90;;;5.60;;
2656;SDS011;1338;48.176;11.792;2023-12-14T04:58:41;6.87;;;5.37;;
2656;SDS011;1338;48.176;11.792;2023-12-14T05:01:10;6.63;;;4.97;;
2656;SDS011;1338;48.176;11.792;2023-12-14T05:03:40;5.80;;;5.20;;
2656;SDS011;1338;48.176;11.792;2023-12-14T05:06:09;5.73;;;4.33;;
2656;SDS011;1338;48.176;11.792;2023-12-14T05:08:40;5.23;;;4.50;;
2656;SDS011;1338;48.176;11.792;2023-12-14T05:11:11;5.03;;;4.53;;
2656;SDS011;1338;48.176;11.792;2023-12-14T05:13:40;5.03;;;4.53;;
2656;SDS011;1338;48.176;11.792;2023-12-14T05:16:12;5.13;;;4.53;;
2656;SDS011;1338;48.176;11.792;2023-12-14T05:18:41;5.90;;;5.30;;
2656;SDS011;1338;48.176;11.792;2023-12-14T05:21:11;5.23;;;4.53;;
2656;SDS011;1338;48.176;11.792;2023-12-14T05:23:48;4.97;;;4.13;;
2656;SDS011;1338;48.176;11.792;2023-12-14T05:26:17;4.90;;;4.00;;
2656;SDS011;1338;48.176;11.792;2023-12-14T05:28:48;5.00;;;4.50;;
2656;SDS011;1338;48.176;11.792;2023-12-14T05:31:16;5.40;;;4.03;;
2656;SDS011;1338;48.176;11.792;2023-12-14T05:33:45;5.57;;;5.00;;
2656;SDS011;1338;48.176;11.792;2023-12-14T05:36:14;6.00;;;3.93;;
2656;SDS011;1338;48.176;11.792;2023-12-14T05:38:44;7.20;;;4.70;;
2656;SDS011;1338;48.176;11.792;2023-12-14T05:41:14;5.03;;;4.53;;
2656;SDS011;1338;48.176;11.792;2023-12-14T05:43:43;5.80;;;4.37;;
2656;SDS011;1338;48.176;11.792;2023-12-14T05:46:19;6.63;;;4.37;;
2656;SDS011;1338;48.176;11.792;2023-12-14T05:48:49;5.67;;;3.90;;
2656;SDS011;1338;48.176;11.792;2023-12-14T05:51:44;5.30;;;4.73;;
2656;SDS011;1338;48.176;11.792;2023-12-14T05:54:17;5.13;;;4.43;;
2656;SDS011;1338;48.176;11.792;2023-12-14T05:56:49;5.70;;;4.63;;
2656;SDS011;1338;48.176;11.792;2023-12-14T05:59:19;6.20;;;5.20;;
2656;SDS011;1338;48.176;11.792;2023-12-14T06:01:48;4.87;;;4.37;;
2656;SDS011;1338;48.176;11.792;2023-12-14T06:04:19;7.33;;;4.80;;
2656;SDS011;1338;48.176;11.792;2023-12-14T06:06:49;6.20;;;4.67;;
2656;SDS011;1338;48.176;11.792;2023-12-14T06:09:18;6.37;;;5.23;;
2656;SDS011;1338;48.176;11.792;2023-12-14T06:11:54;6.40;;;4.70;;
2656;SDS011;1338;48.176;11.792;2023-12-14T06:14:23;6.97;;;5.00;;
2656;SDS011;1338;48.176;11.792;2023-12-14T06:16:52;5.90;;;5.17;;
2656;SDS011;1338;48.176;11.792;2023-12-14T06:19:21;8.93;;;6.00;;
2656;SDS011;1338;48.176;11.792;2023-12-14T06:21:50;7.33;;;5.90;;
2656;SDS011;1338;48.176;11.792;2023-12-14T06:24:19;7.93;;;6.60;;
2656;SDS011;1338;48.176;11.792;2023-12-14T06:26:54;8.43;;;6.33;;
2656;SDS011;1338;48.176;11.792;2023-12-14T06:29:23;7.33;;;5.40;;
2656;SDS011;1338;48.176;11.792;2023-12-14T06:31:52;6.53;;;5.90;;
2656;SDS011;1338;48.176;11.792;2023-12-14T06:34:21;8.53;;;6.33;;
2656;SDS011;1338;48.176;11.792;2023-12-14T06:36:52;7.67;;;6.87;;
2656;SDS011;1338;48.176;11.792;2023-12-14T06:39:24;8.67;;;6.73;;
2656;SDS011;1338;48.176;11.792;2023-12-14T06:42:02;7.20;;;6.20;;
2656;SDS011;1338;48.176;11.792;2023-12-14T06:44:33;6.80;;;5.60;;
2656;SDS011;1338;48.176;11.792;2023-12-14T06:47:03;9.20;;;6.80;;
2656;SDS011;1338;48.176;11.792;2023-12-14T06:49:33;7.53;;;6.10;;
2656;SDS011;1338;48.176;11.792;2023-12-14T06:52:03;6.73;;;6.07;;
2656;SDS011;1338;48.176;11.792;2023-12-14T06:54:32;7.77;;;6.60;;
2656;SDS011;1338;48.176;11.792;2023-12-14T06:57:02;8.00;;;6.47;;
2656;SDS011;1338;48.176;11.792;2023-12-14T06:59:31;8.77;;;6.27;;
2656;SDS011;1338;48.176;11.792;2023-12-14T07:02:00;11.73;;;7.47;;
2656;SDS011;1338;48.176;11.792;2023-12-14T07:04:36;10.60;;;7.20;;
2656;SDS011;1338;48.176;11.792;2023-12-14T07:07:08;9.20;;;6.20;;
2656;SDS011;1338;48.176;11.792;2023-12-14T07:09:39;7.87;;;6.37;;
2656;SDS011;1338;48.176;11.792;2023-12-14T07:12:09;9.80;;;6.13;;
2656;SDS011;1338;48.176;11.792;2023-12-14T07:14:40;8.10;;;6.37;;
2656;SDS011;1338;48.176;11.792;2023-12-14T07:17:10;8.70;;;6.43;;
2656;SDS011;1338;48.176;11.792;2023-12-14T07:19:43;14.00;;;8.87;;
2656;SDS011;1338;48.176;11.792;2023-12-14T07:22:12;8.10;;;6.60;;
2656;SDS011;1338;48.176;11.792;2023-12-14T07:24:43;8.50;;;6.00;;
2656;SDS011;1338;48.176;11.792;2023-12-14T07:27:25;7.77;;;5.87;;
2656;SDS011;1338;48.176;11.792;2023-12-14T07:29:56;7.43;;;5.50;;
2656;SDS011;1338;48.176;11.792;2023-12-14T07:32:25;8.17;;;6.10;;
2656;SDS011;1338;48.176;11.792;2023-12-14T07:34:54;6.77;;;4.90;;
2656;SDS011;1338;48.176;11.792;2023-12-14T07:37:25;6.80;;;6.10;;
2656;SDS011;1338;48.176;11.792;2023-12-14T07:39:55;5.80;;;5.00;;
2656;SDS011;1338;48.176;11.792;2023-12-14T07:42:27;8.00;;;5.87;;
2656;SDS011;1338;48.176;11.792;2023-12-14T07:44:56;7.40;;;5.70;;
2656;SDS011;1338;48.176;11.792;2023-12-14T07:47:25;5.43;;;4.90;;
2656;SDS011;1338;48.176;11.792;2023-12-14T07:49:55;6.23;;;5.63;;
2656;SDS011;1338;48.176;11.792;2023-12-14T07:52:25;14.40;;;9.67;;
2656;SDS011;1338;48.176;11.792;2023-12-14T07:54:54;10.00;;;7.50;;
2656;SDS011;1338;48.176;11.792;2023-12-14T07:57:27;8.03;;;6.70;;
2656;SDS011;1338;48.176;11.792;2023-12-14T07:59:57;10.00;;;7.73;;
2656;SDS011;1338;48.176;11.792;2023-12-14T08:02:31;8.60;;;5.97;;
2656;SDS011;1338;48.176;11.792;2023-12-14T08:05:02;8.23;;;7.17;;
2656;SDS011;1338;48.176;11.792;2023-12-14T08:07:31;8.93;;;7.17;;
2656;SDS011;1338;48.176;11.792;2023-12-14T08:10:02;8.20;;;5.80;;
2656;SDS011;1338;48.176;11.792;2023-12-14T08:12:34;13.40;;;9.20;;
2656;SDS011;1338;48.176;11.792;2023-12-14T08:15:04;9.73;;;7.53;;
2656;SDS011;1338;48.176;11.792;2023-12-14T08:17:35;6.87;;;5.97;;
2656;SDS011;1338;48.176;11.792;2023-12-14T08:20:04;7.37;;;6.67;;
2656;SDS011;1338;48.176;11.792;2023-12-14T08:22:35;8.63;;;6.70;;
2656;SDS011;1338;48.176;11.792;2023-12-14T08:25:11;7.60;;;6.50;;
2656;SDS011;1338;48.176;11.792;2023-12-14T08:27:44;10.63;;;9.43;;
2656;SDS011;1338;48.176;11.792;2023-12-14T08:30:13;6.90;;;5.70;;
2656;SDS011;1338;48.176;11.792;2023-12-14T08:32:42;7.97;;;6.40;;
2656;SDS011;1338;48.176;11.792;2023-12-14T08:35:14;8.63;;;7.83;;
2656;SDS011;1338;48.176;11.792;2023-12-14T08:37:43;6.67;;;6.00;;
2656;SDS011;1338;48.176;11.792;2023-12-14T08:40:12;8.50;;;6.20;;
2656;SDS011;1338;48.176;11.792;2023-12-14T08:42:48;8.63;;;6.70;;
2656;SDS011;1338;48.176;11.792;2023-12-14T08:45:18;7.47;;;6.50;;
2656;SDS011;1338;48.176;11.792;2023-12-14T08:47:48;9.27;;;7.30;;
2656;SDS011;1338;48.176;11.792;2023-12-14T08:50:16;9.27;;;7.20;;
2656;SDS011;1338;48.176;11.792;2023-12-14T08:52:46;7.97;;;6.37;;
2656;SDS011;1338;48.176;11.792;2023-12-14T08:55:18;7.87;;;6.90;;
2656;SDS011;1338;48.176;11.792;2023-12-14T08:57:52;9.13;;;7.50;;
2656;SDS011;1338;48.176;11.792;2023-12-14T09:00:24;7.47;;;6.70;;
2656;SDS011;1338;48.176;11.792;2023-12-14T09:02:53;10.00;;;7.17;;
2656;SDS011;1338;48.176;11.792;2023-12-14T09:05:22;8.03;;;7.23;;
2656;SDS011;1338;48.176;11.792;2023-12-14T09:07:54;9.47;;;7.40;;
2656;SDS011;1338;48.176;11.792;2023-12-14T09:10:23;10.90;;;8.10;;
2656;SDS011;1338;48.176;11.792;2023-12-14T09:12:56;8.27;;;7.37;;
2656;SDS011;1338;48.176;11.792;2023-12-14T09:15:26;10.40;;;7.50;;
2656;SDS011;1338;48.176;11.792;2023-12-14T09:17:55;8.87;;;6.47;;
2656;SDS011;1338;48.176;11.792;2023-12-14T09:20:25;8.40;;;7.00;;
2656;SDS011;1338;48.176;11.792;2023-12-14T09:22:55;7.50;;;6.00;;
2656;SDS011;1338;48.176;11.792;2023-12-14T09:25:24;7.93;;;6.47;;
2656;SDS011;1338;48.176;11.792;2023-12-14T09:27:54;5.87;;;5.10;;
2656;SDS011;1338;48.176;11.792;2023-12-14T09:30:24;6.60;;;5.97;;
2656;SDS011;1338;48.176;11.792;2023-12-14T09:32:54;7.17;;;6.40;;
2656;SDS011;1338;48.176;11.792;2023-12-14T09:35:24;6.53;;;5.90;;
2656;SDS011;1338;48.176;11.792;2023-12-14T09:37:54;5.57;;;5.07;;
2656;SDS011;1338;48.176;11.792;2023-12-14T09:40:23;6.17;;;5.57;;
2656;SDS011;1338;48.176;11.792;2023-12-14T09:42:52;5.77;;;5.27;;
2656;SDS011;1338;48.176;11.792;2023-12-14T09:45:27;6.63;;;6.00;;
2656;SDS011;1338;48.176;11.792;2023-12-14T09:47:57;8.37;;;6.20;;
2656;SDS011;1338;48.176;11.792;2023-12-14T09:50:28;6.80;;;5.70;;
2656;SDS011;1338;48.176;11.792;2023-12-14T09:52:58;7.63;;;6.10;;
2656;SDS011;1338;48.176;11.792;2023-12-14T09:55:28;6.07;;;5.20;;
2656;SDS011;1338;48.176;11.792;2023-12-14T09:57:58;5.37;;;4.87;;
2656;SDS011;1338;48.176;11.792;2023-12-14T10:00:37;5.03;;;4.60;;
2656;SDS011;1338;48.176;11.792;2023-12-14T10:03:20;6.13;;;5.00;;
2656;SDS011;1338;48.176;11.792;2023-12-14T10:05:50;4.20;;;3.80;;
2656;SDS011;1338;48.176;11.792;2023-12-14T10:08:22;4.27;;;3.87;;
2656;SDS011;1338;48.176;11.792;2023-12-14T10:10:52;4.90;;;4.50;;
2656;SDS011;1338;48.176;11.792;2023-12-14T10:13:36;4.43;;;4.03;;
2656;SDS011;1338;48.176;11.792;2023-12-14T10:16:08;3.83;;;3.53;;
2656;SDS011;1338;48.176;11.792;2023-12-14T10:18:38;5.23;;;3.30;;
2656;SDS011;1338;48.176;11.792;2023-12-14T10:21:08;3.50;;;3.20;;
2656;SDS011;1338;48.176;11.792;2023-12-14T10:23:37;3.07;;;2.87;;
2656;SDS011;1338;48.176;11.792;2023-12-14T10:26:07;5.53;;;3.13;;
2656;SDS011;1338;48.176;11.792;2023-12-14T10:28:39;3.83;;;3.40;;
2656;SDS011;1338;48.176;11.792;2023-12-14T10:31:10;4.10;;;3.70;;
2656;SDS011;1338;48.176;11.792;2023-12-14T10:33:40;5.20;;;4.00;;
2656;SDS011;1338;48.176;11.792;2023-12-14T10:36:10;4.17;;;3.80;;
2656;SDS011;1338;48.176;11.792;2023-12-14T10:38:43;4.50;;;4.20;;
2656;SDS011;1338;48.176;11.792;2023-12-14T10:41:15;3.73;;;3.07;;
2656;SDS011;1338;48.176;11.792;2023-12-14T10:43:47;2.93;;;2.73;;
2656;SDS011;1338;48.176;11.792;2023-12-14T10:46:38;3.30;;;3.00;;
2656;SDS011;1338;48.176;11.792;2023-12-14T10:49:09;2.57;;;2.37;;
2656;SDS011;1338;48.176;11.792;2023-12-14T10:51:39;3.03;;;2.67;;
2656;SDS011;1338;48.176;11.792;2023-12-14T10:54:12;2.60;;;2.40;;
2656;SDS011;1338;48.176;11.792;2023-12-14T10:56:46;2.50;;;2.30;;
2656;SDS011;1338;48.176;11.792;2023-12-14T10:59:15;2.13;;;1.93;;
2656;SDS011;1338;48.176;11.792;2023-12-14T11:01:47;2.40;;;2.20;;
2656;SDS011;1338;48.176;11.792;2023-12-14T11:04:21;3.00;;;2.37;;
2656;SDS011;1338;48.176;11.792;2023-12-14T11:06:50;2.87;;;2.67;;
2656;SDS011;1338;48.176;11.792;2023-12-14T11:09:25;2.80;;;2.60;;
2656;SDS011;1338;48.176;11.792;2023-12-14T11:11:56;3.07;;;2.77;;
2656;SDS011;1338;48.176;11.792;2023-12-14T11:14:37;3.50;;;3.20;;
2656;SDS011;1338;48.176;11.792;2023-12-14T11:17:09;3.00;;;2.70;;
2656;SDS011;1338;48.176;11.792;2023-12-14T11:19:41;4.13;;;3.57;;
2656;SDS011;1338;48.176;11.792;2023-12-14T11:22:14;3.53;;;3.23;;
2656;SDS011;1338;48.176;11.792;2023-12-14T11:24:52;5.60;;;3.80;;
2656;SDS011;1338;48.176;11.792;2023-12-14T11:27:27;3.63;;;3.33;;
2656;SDS011;1338;48.176;11.792;2023-12-14T11:30:05;3.50;;;3.20;;
2656;SDS011;1338;48.176;11.792;2023-12-14T11:32:37;3.93;;;3.47;;
2656;SDS011;1338;48.176;11.792;2023-12-14T11:35:08;5.73;;;4.30;;
2656;SDS011;1338;48.176;11.792;2023-12-14T11:37:39;3.97;;;3.57;;
2656;SDS011;1338;48.176;11.792;2023-12-14T11:40:09;5.57;;;5.07;;
2656;SDS011;1338;48.176;11.792;2023-12-14T11:42:40;4.77;;;3.93;;
2656;SDS011;1338;48.176;11.792;2023-12-14T11:45:16;5.40;;;4.60;;
2656;SDS011;1338;48.176;11.792;2023-12-14T11:47:48;5.37;;;4.30;;
2656;SDS011;1338;48.176;11.792;2023-12-14T11:50:19;5.13;;;4.70;;
2656;SDS011;1338;48.176;11.792;2023-12-14T11:52:48;5.57;;;5.07;;
2656;SDS011;1338;48.176;11.792;2023-12-14T11:55:18;4.97;;;4.23;;
2656;SDS011;1338;48.176;11.792;2023-12-14T11:57:47;7.53;;;5.47;;
2656;SDS011;1338;48.176;11.792;2023-12-14T12:00:23;6.20;;;5.60;;
2656;SDS011;1338;48.176;11.792;2023-12-14T12:03:07;4.83;;;4.33;;
2656;SDS011;1338;48.176;11.792;2023-12-14T12:05:38;5.77;;;5.20;;
2656;SDS011;1338;48.176;11.792;2023-12-14T12:08:09;5.93;;;4.70;;
2656;SDS011;1338;48.176;11.792;2023-12-14T12:10:41;7.93;;;5.70;;
2656;SDS011;1338;48.176;11.792;2023-12-14T12:13:13;7.83;;;6.00;;
2656;SDS011;1338;48.176;11.792;2023-12-14T12:15:44;6.17;;;5.67;;
2656;SDS011;1338;48.176;11.792;2023-12-14T12:18:19;7.50;;;6.80;;
2656;SDS011;1338;48.176;11.792;2023-12-14T12:20:48;6.47;;;5.87;;
2656;SDS011;1338;48.176;11.792;2023-12-14T12:23:20;7.47;;;6.60;;
2656;SDS011;1338;48.176;11.792;2023-12-14T12:25:52;5.70;;;5.20;;
2656;SDS011;1338;48.176;11.792;2023-12-14T12:28:26;8.67;;;5.60;;
2656;SDS011;1338;48.176;11.792;2023-12-14T12:30:58;6.63;;;5.80;;
2656;SDS011;1338;48.176;11.792;2023-12-14T12:33:30;9.00;;;6.80;;
2656;SDS011;1338;48.176;11.792;2023-12-14T12:36:12;6.90;;;6.20;;
2656;SDS011;1338;48.176;11.792;2023-12-14T12:38:43;6.97;;;5.90;;
2656;SDS011;1338;48.176;11.792;2023-12-14T12:41:13;6.40;;;5.80;;
2656;SDS011;1338;48.176;11.792;2023-12-14T12:43:44;5.03;;;4.63;;
2656;SDS011;1338;48.176;11.792;2023-12-14T12:46:13;5.37;;;4.83;;
2656;SDS011;1338;48.176;11.792;2023-12-14T12:48:44;5.43;;;4.70;;
2656;SDS011;1338;48.176;11.792;2023-12-14T12:51:14;5.43;;;4.77;;
2656;SDS011;1338;48.176;11.792;2023-12-14T12:53:44;5.80;;;5.30;;
2656;SDS011;1338;48.176;11.792;2023-12-14T12:56:15;5.80;;;4.90;;
2656;SDS011;1338;48.176;11.792;2023-12-14T12:58:51;4.90;;;4.13;;
2656;SDS011;1338;48.176;11.792;2023-12-14T13:01:25;5.13;;;4.10;;
2656;SDS011;1338;48.176;11.792;2023-12-14T13:03:59;4.60;;;4.20;;
2656;SDS011;1338;48.176;11.792;2023-12-14T13:06:28;5.60;;;4.20;;
2656;SDS011;1338;48.176;11.792;2023-12-14T13:08:58;5.10;;;3.90;;
2656;SDS011;1338;48.176;11.792;2023-12-14T13:11:28;3.83;;;3.53;;
2656;SDS011;1338;48.176;11.792;2023-12-14T13:13:57;3.67;;;3.30;;
2656;SDS011;1338;48.176;11.792;2023-12-14T13:16:27;4.50;;;4.03;;
2656;SDS011;1338;48.176;11.792;2023-12-14T13:18:56;4.47;;;4.07;;
2656;SDS011;1338;48.176;11.792;2023-12-14T13:21:28;4.37;;;3.97;;
2656;SDS011;1338;48.176;11.792;2023-12-14T13:23:58;3.67;;;3.13;;
2656;SDS011;1338;48.176;11.792;2023-12-14T13:26:27;4.10;;;3.80;;
2656;SDS011;1338;48.176;11.792;2023-12-14T13:28:57;4.00;;;3.70;;
2656;SDS011;1338;48.176;11.792;2023-12-14T13:31:26;7.90;;;5.70;;
2656;SDS011;1338;48.176;11.792;2023-12-14T13:33:59;4.17;;;3.77;;
2656;SDS011;1338;48.176;11.792;2023-12-14T13:36:29;6.47;;;3.63;;
2656;SDS011;1338;48.176;11.792;2023-12-14T13:38:58;4.00;;;3.60;;
2656;SDS011;1338;48.176;11.792;2023-12-14T13:41:30;3.90;;;3.50;;
2656;SDS011;1338;48.176;11.792;2023-12-14T13:44:15;4.63;;;3.50;;
2656;SDS011;1338;48.176;11.792;2023-12-14T13:46:48;3.63;;;3.20;;
2656;SDS011;1338;48.176;11.792;2023-12-14T13:49:18;3.97;;;3.50;;
2656;SDS011;1338;48.176;11.792;2023-12-14T13:51:51;3.70;;;3.40;;
2656;SDS011;1338;48.176;11.792;2023-12-14T13:54:22;4.43;;;3.90;;
2656;SDS011;1338;48.176;11.792;2023-12-14T13:56:52;3.80;;;3.50;;
2656;SDS011;1338;48.176;11.792;2023-12-14T13:59:24;4.50;;;4.10;;
2656;SDS011;1338;48.176;11.792;2023-12-14T14:01:54;4.30;;;3.90;;
2656;SDS011;1338;48.176;11.792;2023-12-14T14:04:30;6.87;;;4.53;;
2656;SDS011;1338;48.176;11.792;2023-12-14T14:07:09;4.83;;;4.40;;
2656;SDS011;1338;48.176;11.792;2023-12-14T14:09:44;4.73;;;4.33;;
2656;SDS011;1338;48.176;11.792;2023-12-14T14:12:13;5.80;;;4.17;;
2656;SDS011;1338;48.176;11.792;2023-12-14T14:14:42;4.63;;;4.20;;
2656;SDS011;1338;48.176;11.792;2023-12-14T14:17:11;4.30;;;3.90;;
2656;SDS011;1338;48.176;11.792;2023-12-14T14:19:42;5.37;;;4.87;;
2656;SDS011;1338;48.176;11.792;2023-12-14T14:22:13;4.13;;;3.73;;
2656;SDS011;1338;48.176;11.792;2023-12-14T14:24:42;4.63;;;4.17;;
2656;SDS011;1338;48.176;11.792;2023-12-14T14:27:15;4.40;;;3.60;;
2656;SDS011;1338;48.176;11.792;2023-12-14T14:29:45;4.27;;;3.87;;
2656;SDS011;1338;48.176;11.792;2023-12-14T14:32:14;5.20;;;4.47;;
2656;SDS011;1338;48.176;11.792;2023-12-14T14:34:45;3.57;;;3.27;;
2656;SDS011;1338;48.176;11.792;2023-12-14T14:37:15;4.13;;;3.83;;
2656;SDS011;1338;48.176;11.792;2023-12-14T14:39:43;4.03;;;3.73;;
2656;SDS011;1338;48.176;11.792;2023-12-14T14:42:13;6.03;;;3.53;;
2656;SDS011;1338;48.176;11.792;2023-12-14T14:44:42;4.80;;;3.37;;
2656;SDS011;1338;48.176;11.792;2023-12-14T14:47:11;3.37;;;3.07;;
2656;SDS011;1338;48.176;11.792;2023-12-14T14:49:42;3.80;;;3.50;;
2656;SDS011;1338;48.176;11.792;2023-12-14T14:52:16;3.57;;;3.27;;
2656;SDS011;1338;48.176;11.792;2023-12-14T14:54:45;4.53;;;3.13;;
2656;SDS011;1338;48.176;11.792;2023-12-14T14:57:18;3.33;;;3.03;;
2656;SDS011;1338;48.176;11.792;2023-12-14T14:59:47;4.20;;;3.70;;
2656;SDS011;1338;48.176;11.792;2023-12-14T15:02:17;4.17;;;3.70;;
2656;SDS011;1338;48.176;11.792;2023-12-14T15:04:46;3.80;;;3.47;;
2656;SDS011;1338;48.176;11.792;2023-12-14T15:07:18;4.20;;;3.80;;
2656;SDS011;1338;48.176;11.792;2023-12-14T15:09:47;3.87;;;3.50;;
2656;SDS011;1338;48.176;11.792;2023-12-14T15:12:16;3.90;;;3.50;;
2656;SDS011;1338;48.176;11.792;2023-12-14T15:14:58;3.90;;;3.57;;
2656;SDS011;1338;48.176;11.792;2023-12-14T15:17:41;4.33;;;3.63;;
2656;SDS011;1338;48.176;11.792;2023-12-14T15:20:38;3.83;;;3.00;;
2656;SDS011;1338;48.176;11.792;2023-12-14T15:29:52;3.53;;;3.10;;